createdAt,value
2018-08-07T00:01:42.680Z,100818.74
2018-08-07T00:04:12.590Z,100812.98
2018-08-07T00:06:46.470Z,100813.30
2018-08-07T00:09:16.031Z,100810.75
2018-08-07T00:11:45.660Z,100801.12
2018-08-07T00:14:15.338Z,100802.64
2018-08-07T00:16:46.852Z,100808.80
2018-08-07T00:19:16.780Z,100807.33
2018-08-07T00:21:46.240Z,100805.92
2018-08-07T00:24:16.167Z,100800.11
2018-08-07T00:26:45.672Z,100796.34
2018-08-07T00:29:15.824Z,100800.04
2018-08-07T00:31:46.391Z,100795.00
2018-08-07T00:34:15.897Z,100785.38
2018-08-07T00:36:45.696Z,100795.23
2018-08-07T00:39:15.218Z,100791.12
2018-08-07T00:41:45.240Z,100788.03
2018-08-07T00:44:15.992Z,100787.92
2018-08-07T00:46:45.974Z,100787.19
2018-08-07T00:49:15.851Z,100789.64
2018-08-07T00:51:45.767Z,100779.70
2018-08-07T00:54:15.832Z,100777.52
2018-08-07T00:56:45.482Z,100768.53
2018-08-07T00:59:15.291Z,100770.33
2018-08-07T01:01:45.163Z,100766.61
2018-08-07T01:04:15.078Z,100761.72
2018-08-07T01:06:44.488Z,100759.02
2018-08-07T01:09:13.903Z,100759.88
2018-08-07T01:11:43.362Z,100763.02
2018-08-07T01:14:13.850Z,100758.23
2018-08-07T01:16:43.340Z,100757.20
2018-08-07T01:19:13.189Z,100761.31
2018-08-07T01:21:43.003Z,100758.83
2018-08-07T01:24:13.319Z,100762.41
2018-08-07T01:26:42.811Z,100768.84
2018-08-07T01:29:12.511Z,100761.14
2018-08-07T01:31:42.056Z,100753.88
2018-08-07T01:34:11.980Z,100752.44
2018-08-07T01:36:41.911Z,100756.75
2018-08-07T01:39:12.396Z,100748.81
2018-08-07T01:41:42.519Z,100754.23
2018-08-07T01:44:12.389Z,100749.34
2018-08-07T01:46:44.140Z,100748.41
2018-08-07T01:49:15.811Z,100747.24
2018-08-07T01:51:45.465Z,100743.61
2018-08-07T01:54:15.001Z,100734.88
2018-08-07T01:56:44.963Z,100737.66
2018-08-07T01:59:14.805Z,100734.91
2018-08-07T02:01:44.680Z,100736.75
2018-08-07T02:04:14.743Z,100731.19
2018-08-07T02:06:44.407Z,100731.63
2018-08-07T02:09:15.023Z,100732.34
2018-08-07T02:11:45.030Z,100727.88
2018-08-07T02:14:14.863Z,100727.05
2018-08-07T02:16:44.860Z,100726.95
2018-08-07T02:19:14.720Z,100729.19
2018-08-07T02:21:44.718Z,100725.27
2018-08-07T02:24:15.650Z,100722.83
2018-08-07T02:26:45.665Z,100723.93
2018-08-07T02:29:15.083Z,100722.06
2018-08-07T02:31:45.564Z,100728.98
2018-08-07T02:34:15.583Z,100725.09
2018-08-07T02:36:45.565Z,100723.83
2018-08-07T02:39:15.781Z,100718.75
2018-08-07T02:41:45.379Z,100716.61
2018-08-07T02:44:15.438Z,100719.45
2018-08-07T02:46:45.475Z,100711.42
2018-08-07T02:49:15.246Z,100714.09
2018-08-07T02:51:47.962Z,100708.30
2018-08-07T02:54:18.008Z,100715.42
2018-08-07T02:56:48.307Z,100712.17
2018-08-07T02:59:18.233Z,100708.95
2018-08-07T03:01:49.387Z,100710.72
2018-08-07T03:04:19.447Z,100713.61
2018-08-07T03:06:49.419Z,100710.73
2018-08-07T03:09:19.733Z,100714.50
2018-08-07T03:11:49.201Z,100708.53
2018-08-07T03:14:18.721Z,100716.49
2018-08-07T03:16:48.703Z,100721.72
2018-08-07T03:19:18.287Z,100725.13
2018-08-07T03:21:48.688Z,100718.73
2018-08-07T03:24:18.292Z,100718.73
2018-08-07T03:26:47.868Z,100728.02
2018-08-07T03:29:17.435Z,100727.85
2018-08-07T03:31:47.664Z,100730.33
2018-08-07T03:34:17.540Z,100728.68
2018-08-07T03:36:47.648Z,100722.84
2018-08-07T03:39:17.249Z,100730.68
2018-08-07T03:41:47.868Z,100722.73
2018-08-07T03:44:17.908Z,100725.41
2018-08-07T03:46:47.824Z,100726.80
2018-08-07T03:49:17.869Z,100729.13
2018-08-07T03:51:47.532Z,100722.98
2018-08-07T03:54:17.514Z,100721.17
2018-08-07T03:56:47.266Z,100728.39
2018-08-07T03:59:16.808Z,100721.84
2018-08-07T04:01:46.358Z,100728.73
2018-08-07T04:04:16.081Z,100726.31
2018-08-07T04:06:45.834Z,100724.03
2018-08-07T04:09:16.862Z,100730.91
2018-08-07T04:11:47.614Z,100732.17
2018-08-07T04:14:19.647Z,100725.48
2018-08-07T04:16:55.896Z,100721.84
2018-08-07T04:19:27.498Z,100715.33
2018-08-07T04:21:57.932Z,100721.66
2018-08-07T04:24:28.830Z,100720.19
2018-08-07T04:26:58.991Z,100723.41
2018-08-07T04:29:30.596Z,100722.97
2018-08-07T04:32:00.272Z,100722.53
2018-08-07T04:34:30.724Z,100720.34
2018-08-07T04:37:00.242Z,100732.63
2018-08-07T04:39:30.205Z,100727.53
2018-08-07T04:42:00.138Z,100731.78
2018-08-07T04:44:30.222Z,100734.34
2018-08-07T04:47:00.190Z,100730.81
2018-08-07T04:49:29.858Z,100730.03
2018-08-07T04:52:01.595Z,100733.30
2018-08-07T04:54:31.454Z,100736.97
2018-08-07T04:57:01.021Z,100739.39
2018-08-07T04:59:30.900Z,100729.47
2018-08-07T05:02:00.633Z,100731.67
2018-08-07T05:04:30.359Z,100738.11
2018-08-07T05:07:00.773Z,100731.38
2018-08-07T05:09:30.322Z,100735.21
2018-08-07T05:11:59.997Z,100730.09
2018-08-07T05:14:30.282Z,100731.84
2018-08-07T05:17:00.082Z,100730.42
2018-08-07T05:19:30.222Z,100737.16
2018-08-07T05:22:00.305Z,100727.02
2018-08-07T05:24:30.296Z,100735.86
2018-08-07T05:26:59.807Z,100730.67
2018-08-07T05:29:30.781Z,100728.62
2018-08-07T05:32:00.614Z,100726.64
2018-08-07T05:34:30.114Z,100733.30
2018-08-07T05:36:59.911Z,100729.19
2018-08-07T05:39:29.814Z,100728.17
2018-08-07T05:41:59.204Z,100732.02
2018-08-07T05:44:29.055Z,100729.44
2018-08-07T05:46:58.922Z,100730.19
2018-08-07T05:49:28.377Z,100725.88
2018-08-07T05:51:58.186Z,100731.84
2018-08-07T05:54:27.525Z,100736.16
2018-08-07T05:56:57.114Z,100732.11
2018-08-07T05:59:26.453Z,100735.07
2018-08-07T06:01:55.984Z,100729.48
2018-08-07T06:04:25.693Z,100738.02
2018-08-07T06:06:55.512Z,100732.13
2018-08-07T06:09:25.006Z,100733.32
2018-08-07T06:11:54.441Z,100728.20
2018-08-07T06:14:24.256Z,100731.04
2018-08-07T06:16:53.767Z,100728.23
2018-08-07T06:19:23.290Z,100722.81
2018-08-07T06:21:52.715Z,100728.13
2018-08-07T06:24:22.337Z,100726.09
2018-08-07T06:26:52.266Z,100723.16
2018-08-07T06:29:21.690Z,100716.70
2018-08-07T06:31:51.092Z,100726.22
2018-08-07T06:34:20.556Z,100720.19
2018-08-07T06:36:50.409Z,100722.63
2018-08-07T06:39:20.281Z,100726.49
2018-08-07T06:41:49.728Z,100725.41
2018-08-07T06:44:19.163Z,100724.81
2018-08-07T06:46:48.582Z,100723.56
2018-08-07T06:49:18.473Z,100724.97
2018-08-07T06:51:48.393Z,100717.12
2018-08-07T06:54:17.873Z,100720.59
2018-08-07T06:56:47.805Z,100720.00
2018-08-07T06:59:17.565Z,100717.91
2018-08-07T07:01:47.112Z,100715.76
2018-08-07T07:04:16.923Z,100714.66
2018-08-07T07:06:46.331Z,100712.13
2018-08-07T07:09:16.233Z,100711.53
2018-08-07T07:11:46.098Z,100708.48
2018-08-07T07:14:15.562Z,100701.72
2018-08-07T07:16:45.355Z,100704.84
2018-08-07T07:19:14.851Z,100699.20
2018-08-07T07:21:44.648Z,100700.20
2018-08-07T07:24:14.228Z,100698.70
2018-08-07T07:26:44.075Z,100706.36
2018-08-07T07:29:14.001Z,100703.16
2018-08-07T07:31:43.849Z,100698.84
2018-08-07T07:34:13.396Z,100696.66
2018-08-07T07:36:43.216Z,100698.48
2018-08-07T07:39:12.632Z,100696.39
2018-08-07T07:41:42.107Z,100691.73
2018-08-07T07:44:11.952Z,100694.80
2018-08-07T07:46:41.966Z,100690.38
2018-08-07T07:49:11.353Z,100689.00
2018-08-07T07:51:40.972Z,100690.23
2018-08-07T07:54:10.851Z,100686.15
2018-08-07T07:56:40.331Z,100683.33
2018-08-07T07:59:09.829Z,100684.12
2018-08-07T08:01:39.407Z,100683.47
2018-08-07T08:04:09.287Z,100682.58
2018-08-07T08:06:38.754Z,100681.42
2018-08-07T08:09:08.741Z,100687.02
2018-08-07T08:11:38.589Z,100682.33
2018-08-07T08:14:08.022Z,100685.98
2018-08-07T08:16:37.528Z,100682.94
2018-08-07T08:19:07.449Z,100675.62
2018-08-07T08:21:37.299Z,100680.34
2018-08-07T08:24:07.219Z,100682.56
2018-08-07T08:26:37.097Z,100678.00
2018-08-07T08:29:06.643Z,100675.78
2018-08-07T08:31:36.377Z,100674.07
2018-08-07T08:34:06.190Z,100680.96
2018-08-07T08:36:36.045Z,100680.05
2018-08-07T08:39:09.035Z,100676.27
2018-08-07T08:41:38.781Z,100667.86
2018-08-07T08:44:09.285Z,100672.25
2018-08-07T08:46:39.128Z,100668.42
2018-08-07T08:49:08.938Z,100669.83
2018-08-07T08:51:38.930Z,100668.34
2018-08-07T08:54:08.711Z,100662.29
2018-08-07T08:56:38.152Z,100665.14
2018-08-07T08:59:08.150Z,100668.27
2018-08-07T09:01:37.965Z,100666.74
2018-08-07T09:04:07.606Z,100664.32
2018-08-07T09:06:37.527Z,100666.48
2018-08-07T09:09:10.197Z,100664.40
2018-08-07T09:11:40.322Z,100658.20
2018-08-07T09:14:11.242Z,100660.28
2018-08-07T09:16:40.692Z,100656.28
2018-08-07T09:19:10.240Z,100658.93
2018-08-07T09:21:39.687Z,100651.77
2018-08-07T09:24:09.197Z,100646.95
2018-08-07T09:26:39.108Z,100652.09
2018-08-07T09:29:08.588Z,100644.73
2018-08-07T09:31:38.044Z,100647.72
2018-08-07T09:34:07.521Z,100637.59
2018-08-07T09:36:36.921Z,100634.07
2018-08-07T09:39:10.386Z,100627.41
2018-08-07T09:41:39.967Z,100636.41
2018-08-07T09:44:09.945Z,100631.00
2018-08-07T09:46:40.000Z,100628.76
2018-08-07T09:49:10.155Z,100626.41
2018-08-07T09:51:40.052Z,100625.67
2018-08-07T09:54:09.931Z,100628.03
2018-08-07T09:56:39.893Z,100626.84
2018-08-07T09:59:09.359Z,100625.53
2018-08-07T10:01:43.971Z,100618.62
2018-08-07T10:04:13.491Z,100607.38
2018-08-07T10:06:43.311Z,100608.86
2018-08-07T10:09:13.310Z,100605.94
2018-08-07T10:11:43.101Z,100607.95
2018-08-07T10:14:12.527Z,100601.10
2018-08-07T10:16:42.461Z,100595.76
2018-08-07T10:19:12.286Z,100599.54
2018-08-07T10:21:42.125Z,100590.29
2018-08-07T10:24:11.981Z,100587.16
2018-08-07T10:26:41.935Z,100585.39
2018-08-07T10:29:11.859Z,100575.86
2018-08-07T10:31:41.409Z,100569.67
2018-08-07T10:34:11.379Z,100575.81
2018-08-07T10:36:41.249Z,100574.58
2018-08-07T10:39:12.042Z,100566.90
2018-08-07T10:41:42.118Z,100563.66
2018-08-07T10:44:12.106Z,100562.14
2018-08-07T10:46:42.562Z,100559.48
2018-08-07T10:49:12.548Z,100555.63
2018-08-07T10:51:42.647Z,100556.05
2018-08-07T10:54:12.539Z,100555.86
2018-08-07T10:56:42.381Z,100547.28
2018-08-07T10:59:11.798Z,100551.84
2018-08-07T11:01:41.609Z,100547.59
2018-08-07T11:04:11.423Z,100535.24
2018-08-07T11:06:41.179Z,100543.88
2018-08-07T11:09:11.614Z,100535.69
2018-08-07T11:11:41.458Z,100539.09
2018-08-07T11:14:11.291Z,100533.98
2018-08-07T11:16:40.838Z,100539.33
2018-08-07T11:19:10.705Z,100525.95
2018-08-07T11:21:40.123Z,100524.92
2018-08-07T11:24:09.967Z,100527.41
2018-08-07T11:26:39.446Z,100531.41
2018-08-07T11:29:09.174Z,100526.72
2018-08-07T11:31:38.640Z,100523.62
2018-08-07T11:34:08.507Z,100524.13
2018-08-07T11:36:38.353Z,100522.73
2018-08-07T11:39:09.874Z,100531.09
2018-08-07T11:41:39.815Z,100526.13
2018-08-07T11:44:09.223Z,100516.73
2018-08-07T11:46:38.741Z,100520.58
2018-08-07T11:49:08.223Z,100515.58
2018-08-07T11:51:38.139Z,100522.75
2018-08-07T11:54:08.005Z,100524.85
2018-08-07T11:56:37.504Z,100522.19
2018-08-07T11:59:16.879Z,100523.87
2018-08-07T12:01:47.317Z,100506.55
2018-08-07T12:04:18.618Z,100509.95
2018-08-07T12:06:48.619Z,100506.48
2018-08-07T12:09:18.126Z,100513.13
2018-08-07T12:11:47.920Z,100507.45
2018-08-07T12:14:17.748Z,100499.39
2018-08-07T12:16:48.212Z,100507.73
2018-08-07T12:19:18.542Z,100494.56
2018-08-07T12:21:50.444Z,100494.67
2018-08-07T12:24:20.610Z,100497.70
2018-08-07T12:26:51.101Z,100483.81
2018-08-07T12:29:21.141Z,100490.44
2018-08-07T12:31:51.151Z,100492.34
2018-08-07T12:34:21.028Z,100485.34
2018-08-07T12:36:50.514Z,100481.85
2018-08-07T12:39:22.258Z,100475.51
2018-08-07T12:41:52.871Z,100476.00
2018-08-07T12:44:23.445Z,100466.95
2018-08-07T12:46:53.350Z,100473.78
2018-08-07T12:49:22.878Z,100462.72
2018-08-07T12:51:54.498Z,100462.67
2018-08-07T12:54:24.412Z,100464.17
2018-08-07T12:56:53.969Z,100459.99
2018-08-07T12:59:23.518Z,100467.59
2018-08-07T13:01:53.258Z,100466.05
2018-08-07T13:04:23.167Z,100464.45
2018-08-07T13:06:54.206Z,100454.58
2018-08-07T13:09:24.077Z,100457.34
2018-08-07T13:11:54.400Z,100447.98
2018-08-07T13:14:24.951Z,100444.25
2018-08-07T13:16:55.213Z,100435.37
2018-08-07T13:19:27.834Z,100437.13
2018-08-07T13:21:58.619Z,100439.52
2018-08-07T13:24:28.706Z,100435.58
2018-08-07T13:26:59.826Z,100429.08
2018-08-07T13:29:31.158Z,100432.38
2018-08-07T13:32:01.301Z,100432.49
2018-08-07T13:34:31.645Z,100430.62
2018-08-07T13:37:02.023Z,100426.87
2018-08-07T13:39:31.917Z,100433.56
2018-08-07T13:42:03.011Z,100430.98
2018-08-07T13:44:32.817Z,100418.02
2018-08-07T13:47:02.727Z,100425.97
2018-08-07T13:49:32.219Z,100421.64
2018-08-07T13:52:01.657Z,100421.31
2018-08-07T13:54:31.482Z,100422.56
2018-08-07T13:57:01.304Z,100418.28
2018-08-07T13:59:31.149Z,100414.72
2018-08-07T14:02:00.978Z,100412.33
2018-08-07T14:04:30.904Z,100410.69
2018-08-07T14:07:00.713Z,100412.80
2018-08-07T14:09:30.601Z,100415.80
2018-08-07T14:12:00.049Z,100414.39
2018-08-07T14:14:29.546Z,100405.01
2018-08-07T14:16:59.745Z,100410.77
2018-08-07T14:19:29.286Z,100401.23
2018-08-07T14:21:59.097Z,100401.88
2018-08-07T14:24:28.953Z,100400.16
2018-08-07T14:26:58.656Z,100395.84
2018-08-07T14:29:28.629Z,100395.92
2018-08-07T14:31:58.465Z,100393.69
2018-08-07T14:34:28.929Z,100390.73
2018-08-07T14:36:58.523Z,100390.73
2018-08-07T14:39:28.281Z,100391.75
2018-08-07T14:41:58.357Z,100385.16
2018-08-07T14:44:28.186Z,100379.48
2018-08-07T14:46:58.246Z,100376.28
2018-08-07T14:49:29.461Z,100373.77
2018-08-07T14:51:59.300Z,100378.05
2018-08-07T14:54:29.327Z,100377.88
2018-08-07T14:56:59.704Z,100376.03
2018-08-07T14:59:29.857Z,100371.02
2018-08-07T15:01:59.969Z,100376.67
2018-08-07T15:04:29.413Z,100372.91
2018-08-07T15:06:59.097Z,100372.57
2018-08-07T15:09:28.961Z,100369.83
2018-08-07T15:11:58.538Z,100369.52
2018-08-07T15:14:28.135Z,100366.23
2018-08-07T15:16:57.993Z,100363.48
2018-08-07T15:19:28.196Z,100367.54
2018-08-07T15:21:57.675Z,100361.33
2018-08-07T15:24:28.822Z,100365.44
2018-08-07T15:27:04.366Z,100365.37
2018-08-07T15:29:34.032Z,100365.37
2018-08-07T15:32:03.905Z,100359.34
2018-08-07T15:34:34.145Z,100361.61
2018-08-07T15:37:04.016Z,100355.05
2018-08-07T15:39:33.953Z,100357.26
2018-08-07T15:42:03.877Z,100351.31
2018-08-07T15:44:33.707Z,100353.50
2018-08-07T15:47:03.252Z,100350.14
2018-08-07T15:49:33.210Z,100349.44
2018-08-07T15:52:03.152Z,100347.73
2018-08-07T15:54:33.417Z,100345.49
2018-08-07T15:57:03.297Z,100347.85
2018-08-07T15:59:34.394Z,100341.05
2018-08-07T16:02:04.309Z,100338.53
2018-08-07T16:04:34.222Z,100338.30
2018-08-07T16:07:03.864Z,100340.59
2018-08-07T16:09:33.383Z,100338.59
2018-08-07T16:12:02.880Z,100331.28
2018-08-07T16:14:32.835Z,100333.33
2018-08-07T16:17:02.735Z,100333.23
2018-08-07T16:19:32.146Z,100329.46
2018-08-07T16:22:01.740Z,100325.56
2018-08-07T16:24:31.261Z,100329.17
2018-08-07T16:27:02.200Z,100329.96
2018-08-07T16:29:31.864Z,100336.92
2018-08-07T16:32:01.406Z,100331.84
2018-08-07T16:34:30.849Z,100326.38
2018-08-07T16:37:00.676Z,100326.22
2018-08-07T16:39:30.440Z,100318.72
2018-08-07T16:42:00.266Z,100324.08
2018-08-07T16:44:29.732Z,100328.56
2018-08-07T16:46:59.513Z,100327.50
2018-08-07T16:49:29.960Z,100330.49
2018-08-07T16:51:59.823Z,100323.47
2018-08-07T16:54:30.205Z,100322.70
2018-08-07T16:56:59.885Z,100316.45
2018-08-07T16:59:30.022Z,100318.41
2018-08-07T17:01:59.936Z,100317.97
2018-08-07T17:04:29.608Z,100326.65
2018-08-07T17:06:59.377Z,100324.14
2018-08-07T17:09:28.860Z,100324.89
2018-08-07T17:11:58.413Z,100321.84
2018-08-07T17:14:28.455Z,100309.35
2018-08-07T17:16:59.200Z,100307.63
2018-08-07T17:22:34.191Z,100312.81
2018-08-07T17:25:04.341Z,100311.75
2018-08-07T17:27:34.249Z,100306.02
2018-08-07T17:30:05.444Z,100308.27
2018-08-07T17:32:35.228Z,100310.90
2018-08-07T17:35:05.639Z,100308.98
2018-08-07T17:37:35.324Z,100307.08
2018-08-07T17:40:06.564Z,100309.50
2018-08-07T17:42:39.467Z,100303.69
2018-08-07T17:45:12.158Z,100304.37
2018-08-07T17:47:42.182Z,100303.48
2018-08-07T17:50:27.720Z,100302.63
2018-08-07T17:53:00.003Z,100304.00
2018-08-07T17:55:30.604Z,100302.83
2018-08-07T17:58:01.965Z,100309.55
2018-08-07T18:00:31.440Z,100314.74
2018-08-07T18:03:02.176Z,100315.08
2018-08-07T18:05:32.086Z,100315.40
2018-08-07T18:08:02.905Z,100311.41
2018-08-07T18:10:32.972Z,100319.00
2018-08-07T18:13:03.359Z,100311.72
2018-08-07T18:15:33.455Z,100312.63
2018-08-07T18:18:03.049Z,100312.77
2018-08-07T18:20:32.813Z,100317.55
2018-08-07T18:23:02.956Z,100312.63
2018-08-07T18:25:32.674Z,100322.02
2018-08-07T18:28:02.753Z,100313.58
2018-08-07T18:30:32.932Z,100325.03
2018-08-07T18:33:03.807Z,100328.28
2018-08-07T18:35:33.665Z,100336.30
2018-08-07T18:38:04.008Z,100341.32
2018-08-07T18:40:34.888Z,100335.95
2018-08-07T18:43:04.798Z,100337.15
2018-08-07T18:45:34.360Z,100345.47
2018-08-07T18:48:03.917Z,100351.73
2018-08-07T18:52:56.065Z,100349.22
2018-08-07T18:55:26.741Z,100352.44
2018-08-07T18:57:56.226Z,100345.41
2018-08-07T19:00:26.165Z,100346.80
2018-08-07T19:02:56.599Z,100349.29
2018-08-07T19:05:27.615Z,100344.27
2018-08-07T19:07:57.729Z,100352.63
2018-08-07T19:10:27.386Z,100354.88
2018-08-07T19:12:57.531Z,100352.04
2018-08-07T19:15:28.547Z,100355.25
2018-08-07T19:17:58.160Z,100352.41
2018-08-07T19:20:27.985Z,100355.45
2018-08-07T19:22:57.677Z,100354.39
2018-08-07T19:25:27.213Z,100350.73
2018-08-07T19:27:57.690Z,100347.20
2018-08-07T19:30:28.543Z,100353.04
2018-08-07T19:32:59.434Z,100350.64
2018-08-07T19:35:30.294Z,100350.83
2018-08-07T19:38:00.387Z,100346.45
2018-08-07T19:40:30.228Z,100352.49
2018-08-07T19:42:59.782Z,100347.38
2018-08-07T19:45:29.144Z,100345.70
2018-08-07T19:47:58.699Z,100344.61
2018-08-07T19:50:28.654Z,100340.31
2018-08-07T19:52:58.583Z,100344.75
2018-08-07T19:55:28.662Z,100343.63
2018-08-07T19:57:58.596Z,100340.59
2018-08-07T20:00:28.882Z,100344.25
2018-08-07T20:02:59.318Z,100341.56
2018-08-07T20:05:29.376Z,100353.23
2018-08-07T20:07:58.920Z,100341.77
2018-08-07T20:10:29.569Z,100341.55
2018-08-07T20:12:59.465Z,100346.82
2018-08-07T20:15:29.645Z,100349.41
2018-08-07T20:17:59.291Z,100349.41
2018-08-07T20:20:29.462Z,100355.09
2018-08-07T20:22:58.990Z,100354.24
2018-08-07T20:25:28.837Z,100355.75
2018-08-07T20:27:58.731Z,100366.86
2018-08-07T20:30:28.559Z,100360.84
2018-08-07T20:32:58.607Z,100346.75
2018-08-07T20:35:28.575Z,100356.24
2018-08-07T20:37:58.126Z,100357.42
2018-08-07T20:40:28.721Z,100352.32
2018-08-07T20:42:59.830Z,100353.76
2018-08-07T20:45:30.607Z,100356.84
2018-08-07T20:48:00.525Z,100356.39
2018-08-07T20:50:31.388Z,100361.39
2018-08-07T20:53:01.205Z,100360.13
2018-08-07T20:55:31.434Z,100362.95
2018-08-07T20:58:01.341Z,100360.89
2018-08-07T21:00:31.307Z,100360.64
2018-08-07T21:03:02.343Z,100356.01
2018-08-07T21:05:31.888Z,100359.34
2018-08-07T21:08:01.517Z,100358.64
2018-08-07T21:10:31.454Z,100365.09
2018-08-07T21:13:01.009Z,100363.61
2018-08-07T21:15:30.465Z,100361.60
2018-08-07T21:17:59.934Z,100364.06
2018-08-07T21:20:29.842Z,100355.03
2018-08-07T21:22:59.668Z,100357.69
2018-08-07T21:25:29.164Z,100365.91
2018-08-07T21:28:00.417Z,100366.52
2018-08-07T21:30:31.550Z,100357.08
2018-08-07T21:33:01.659Z,100357.49
2018-08-07T21:35:31.152Z,100359.01
2018-08-07T21:38:00.586Z,100348.42
2018-08-07T21:40:30.512Z,100352.48
2018-08-07T21:43:00.406Z,100349.78
2018-08-07T21:45:30.571Z,100352.77
2018-08-07T21:47:59.990Z,100361.13
2018-08-07T21:50:29.517Z,100361.66
2018-08-07T21:52:59.344Z,100357.34
2018-08-07T21:55:29.294Z,100364.83
2018-08-07T21:57:58.665Z,100355.10
2018-08-07T22:00:35.318Z,100355.72
2018-08-07T22:03:04.850Z,100347.80
2018-08-07T22:05:34.369Z,100352.16
2018-08-07T22:08:04.337Z,100348.61
2018-08-07T22:10:33.833Z,100348.98
2018-08-07T22:13:03.634Z,100347.03
2018-08-07T22:15:33.446Z,100346.94
2018-08-07T22:18:02.962Z,100346.30
2018-08-07T22:20:32.761Z,100340.61
2018-08-07T22:23:02.302Z,100343.32
2018-08-07T22:25:32.994Z,100342.27
2018-08-07T22:28:02.541Z,100336.48
2018-08-07T22:30:31.972Z,100340.83
2018-08-07T22:33:01.421Z,100342.92
2018-08-07T22:35:31.407Z,100338.86
2018-08-07T22:38:01.251Z,100334.10
2018-08-07T22:40:31.094Z,100338.14
2018-08-07T22:43:00.502Z,100342.06
2018-08-07T22:45:29.985Z,100336.16
2018-08-07T22:47:59.785Z,100339.61
2018-08-07T22:50:29.188Z,100346.63
2018-08-07T22:52:58.846Z,100345.99
2018-08-07T22:55:28.335Z,100350.05
2018-08-07T22:57:57.793Z,100343.27
2018-08-07T23:00:27.728Z,100346.11
2018-08-07T23:02:57.581Z,100346.59
2018-08-07T23:05:29.937Z,100351.63
2018-08-07T23:08:00.769Z,100347.70
2018-08-07T23:10:30.209Z,100340.69
2018-08-07T23:12:59.969Z,100347.17
2018-08-07T23:15:29.729Z,100351.45
2018-08-07T23:17:59.590Z,100347.89
2018-08-07T23:20:29.095Z,100343.84
2018-08-07T23:22:58.546Z,100343.84
2018-08-07T23:25:28.105Z,100342.42
2018-08-07T23:27:57.573Z,100342.59
2018-08-07T23:30:27.387Z,100340.31
2018-08-07T23:32:56.804Z,100338.56
2018-08-07T23:35:26.721Z,100329.55
2018-08-07T23:37:56.493Z,100328.95
2018-08-07T23:40:25.924Z,100324.41
2018-08-07T23:42:55.357Z,100325.77
2018-08-07T23:45:25.238Z,100329.82
2018-08-07T23:47:54.644Z,100328.37
2018-08-07T23:50:25.056Z,100322.59
2018-08-07T23:52:54.806Z,100322.95
2018-08-07T23:55:24.549Z,100324.25
2018-08-07T23:57:53.923Z,100313.25
